sensor_id;sensor_type;location;lat;lon;timestamp;pressure;altitude;pressure_sealevel;temperature;humidity
41862;BME280;27537;57.134;-2.136;2023-04-25T00:02:07;100927.09;;;2.84;100.00
41862;BME280;27537;57.134;-2.136;2023-04-25T00:04:35;101001.13;;;3.27;100.00
41862;BME280;27537;57.134;-2.136;2023-04-25T00:07:05;100996.88;;;3.10;100.00
41862;BME280;27537;57.134;-2.136;2023-04-25T00:09:31;100988.25;;;2.99;100.00
41862;BME280;27537;57.134;-2.136;2023-04-25T00:11:58;101042.50;;;3.34;100.00
41862;BME280;27537;57.134;-2.136;2023-04-25T00:14:25;100973.66;;;2.87;100.00
41862;BME280;27537;57.134;-2.136;2023-04-25T00:16:52;101045.09;;;3.42;100.00
41862;BME280;27537;57.134;-2.136;2023-04-25T00:19:18;101017.56;;;3.06;100.00
41862;BME280;27537;57.134;-2.136;2023-04-25T00:21:45;100969.28;;;3.06;100.00
41862;BME280;27537;57.134;-2.136;2023-04-25T00:24:12;100970.97;;;3.19;100.00
41862;BME280;27537;57.134;-2.136;2023-04-25T00:26:39;100964.09;;;3.15;100.00
41862;BME280;27537;57.134;-2.136;2023-04-25T00:29:06;100992.53;;;3.20;100.00
41862;BME280;27537;57.134;-2.136;2023-04-25T00:31:33;100963.28;;;2.95;100.00
41862;BME280;27537;57.134;-2.136;2023-04-25T00:33:59;100976.19;;;3.12;100.00
41862;BME280;27537;57.134;-2.136;2023-04-25T00:36:26;100983.09;;;3.03;100.00
41862;BME280;27537;57.134;-2.136;2023-04-25T00:38:53;100964.97;;;3.00;100.00
41862;BME280;27537;57.134;-2.136;2023-04-25T00:41:21;100957.28;;;2.82;100.00
41862;BME280;27537;57.134;-2.136;2023-04-25T00:43:49;100977.94;;;2.94;100.00
41862;BME280;27537;57.134;-2.136;2023-04-25T00:46:16;100996.91;;;2.98;100.00
41862;BME280;27537;57.134;-2.136;2023-04-25T00:48:43;100939.22;;;2.57;100.00
41862;BME280;27537;57.134;-2.136;2023-04-25T00:51:14;101022.78;;;2.87;100.00
41862;BME280;27537;57.134;-2.136;2023-04-25T00:53:42;100972.81;;;2.66;100.00
41862;BME280;27537;57.134;-2.136;2023-04-25T00:56:09;100964.19;;;2.63;100.00
41862;BME280;27537;57.134;-2.136;2023-04-25T00:58:37;101013.25;;;3.06;100.00
41862;BME280;27537;57.134;-2.136;2023-04-25T01:01:05;100974.50;;;2.86;100.00
41862;BME280;27537;57.134;-2.136;2023-04-25T01:03:33;101014.13;;;2.99;100.00
41862;BME280;27537;57.134;-2.136;2023-04-25T01:06:02;101035.66;;;3.24;100.00
41862;BME280;27537;57.134;-2.136;2023-04-25T01:08:29;100990.88;;;2.90;100.00
41862;BME280;27537;57.134;-2.136;2023-04-25T01:10:56;100978.00;;;2.59;100.00
41862;BME280;27537;57.134;-2.136;2023-04-25T01:13:23;101010.69;;;3.03;100.00
41862;BME280;27537;57.134;-2.136;2023-04-25T01:15:50;100950.44;;;2.50;100.00
41862;BME280;27537;57.134;-2.136;2023-04-25T01:18:18;100991.78;;;2.73;100.00
41862;BME280;27537;57.134;-2.136;2023-04-25T01:20:46;100957.31;;;2.66;100.00
41862;BME280;27537;57.134;-2.136;2023-04-25T01:23:13;101012.38;;;3.15;100.00
41862;BME280;27537;57.134;-2.136;2023-04-25T01:25:40;101020.19;;;2.96;100.00
41862;BME280;27537;57.134;-2.136;2023-04-25T01:28:07;101018.44;;;3.08;100.00
41862;BME280;27537;57.134;-2.136;2023-04-25T01:30:34;101004.63;;;3.01;100.00
41862;BME280;27537;57.134;-2.136;2023-04-25T01:33:03;100995.19;;;2.69;100.00
41862;BME280;27537;57.134;-2.136;2023-04-25T01:35:31;101009.84;;;2.90;100.00
41862;BME280;27537;57.134;-2.136;2023-04-25T01:37:59;100957.31;;;2.45;100.00
41862;BME280;27537;57.134;-2.136;2023-04-25T01:40:27;100978.00;;;2.60;100.00
41862;BME280;27537;57.134;-2.136;2023-04-25T01:42:54;101023.66;;;2.86;100.00
41862;BME280;27537;57.134;-2.136;2023-04-25T01:45:21;100990.91;;;2.79;100.00
41862;BME280;27537;57.134;-2.136;2023-04-25T01:47:48;100965.09;;;2.48;100.00
41862;BME280;27537;57.134;-2.136;2023-04-25T01:50:18;100973.66;;;2.65;100.00
41862;BME280;27537;57.134;-2.136;2023-04-25T01:52:45;101014.19;;;2.73;100.00
41862;BME280;27537;57.134;-2.136;2023-04-25T01:55:12;100956.47;;;2.41;100.00
41862;BME280;27537;57.134;-2.136;2023-04-25T01:57:39;100937.53;;;2.27;100.00
41862;BME280;27537;57.134;-2.136;2023-04-25T02:00:07;100983.16;;;2.56;100.00
41862;BME280;27537;57.134;-2.136;2023-04-25T02:02:35;100999.50;;;2.82;100.00
41862;BME280;27537;57.134;-2.136;2023-04-25T02:05:02;100996.91;;;2.78;100.00
41862;BME280;27537;57.134;-2.136;2023-04-25T02:07:29;100940.97;;;2.40;100.00
41862;BME280;27537;57.134;-2.136;2023-04-25T02:09:56;100939.25;;;2.33;100.00
41862;BME280;27537;57.134;-2.136;2023-04-25T02:12:23;101024.50;;;2.77;100.00
41862;BME280;27537;57.134;-2.136;2023-04-25T02:14:50;100989.16;;;2.65;100.00
41862;BME280;27537;57.134;-2.136;2023-04-25T02:17:17;100986.59;;;2.56;100.00
41862;BME280;27537;57.134;-2.136;2023-04-25T02:19:44;100957.31;;;2.39;100.00
41862;BME280;27537;57.134;-2.136;2023-04-25T02:22:11;100957.31;;;2.31;100.00
41862;BME280;27537;57.134;-2.136;2023-04-25T02:24:38;101003.84;;;2.70;100.00
41862;BME280;27537;57.134;-2.136;2023-04-25T02:27:05;100970.25;;;2.60;100.00
41862;BME280;27537;57.134;-2.136;2023-04-25T02:29:32;100923.75;;;2.36;100.00
41862;BME280;27537;57.134;-2.136;2023-04-25T02:31:59;100982.25;;;2.81;100.00
41862;BME280;27537;57.134;-2.136;2023-04-25T02:34:25;100967.66;;;2.54;100.00
41862;BME280;27537;57.134;-2.136;2023-04-25T02:36:54;100940.97;;;2.38;100.00
41862;BME280;27537;57.134;-2.136;2023-04-25T02:39:21;100987.50;;;2.44;100.00
41862;BME280;27537;57.134;-2.136;2023-04-25T02:41:48;100974.53;;;2.49;100.00
41862;BME280;27537;57.134;-2.136;2023-04-25T02:44:15;100984.88;;;2.46;100.00
41862;BME280;27537;57.134;-2.136;2023-04-25T02:46:42;100988.34;;;2.42;100.00
41862;BME280;27537;57.134;-2.136;2023-04-25T02:49:09;101020.22;;;2.69;100.00
41862;BME280;27537;57.134;-2.136;2023-04-25T02:51:36;100951.31;;;2.09;100.00
41862;BME280;27537;57.134;-2.136;2023-04-25T02:54:03;100961.63;;;2.14;100.00
41862;BME280;27537;57.134;-2.136;2023-04-25T02:56:29;100982.28;;;2.07;100.00
41862;BME280;27537;57.134;-2.136;2023-04-25T02:58:56;100966.78;;;2.03;100.00
41862;BME280;27537;57.134;-2.136;2023-04-25T03:01:23;101004.69;;;2.32;100.00
41862;BME280;27537;57.134;-2.136;2023-04-25T03:03:50;100995.19;;;2.06;100.00
41862;BME280;27537;57.134;-2.136;2023-04-25T03:06:17;100991.75;;;2.21;100.00
41862;BME280;27537;57.134;-2.136;2023-04-25T03:08:43;100931.47;;;1.86;100.00
41862;BME280;27537;57.134;-2.136;2023-04-25T03:11:10;101002.97;;;2.46;100.00
41862;BME280;27537;57.134;-2.136;2023-04-25T03:13:37;100961.63;;;2.23;100.00
41862;BME280;27537;57.134;-2.136;2023-04-25T03:16:04;100972.84;;;2.22;100.00
41862;BME280;27537;57.134;-2.136;2023-04-25T03:18:31;101008.16;;;2.49;100.00
41862;BME280;27537;57.134;-2.136;2023-04-25T03:20:58;100963.38;;;2.16;100.00
41862;BME280;27537;57.134;-2.136;2023-04-25T03:23:24;100960.75;;;2.07;100.00
41862;BME280;27537;57.134;-2.136;2023-04-25T03:25:52;100983.16;;;2.40;100.00
41862;BME280;27537;57.134;-2.136;2023-04-25T03:28:19;101002.97;;;2.38;100.00
41862;BME280;27537;57.134;-2.136;2023-04-25T03:30:46;100969.41;;;2.31;100.00
41862;BME280;27537;57.134;-2.136;2023-04-25T03:33:13;100994.34;;;2.42;100.00
41862;BME280;27537;57.134;-2.136;2023-04-25T03:35:40;100923.75;;;1.89;100.00
41862;BME280;27537;57.134;-2.136;2023-04-25T03:38:06;100981.44;;;2.25;100.00
41862;BME280;27537;57.134;-2.136;2023-04-25T03:40:33;101002.97;;;2.46;100.00
41862;BME280;27537;57.134;-2.136;2023-04-25T03:43:00;100926.31;;;2.02;100.00
41862;BME280;27537;57.134;-2.136;2023-04-25T03:45:27;100935.78;;;2.00;100.00
41862;BME280;27537;57.134;-2.136;2023-04-25T03:47:53;100952.16;;;2.09;100.00
41862;BME280;27537;57.134;-2.136;2023-04-25T03:50:20;100948.72;;;2.06;100.00
41862;BME280;27537;57.134;-2.136;2023-04-25T03:52:47;100952.16;;;1.99;100.00
41862;BME280;27537;57.134;-2.136;2023-04-25T03:55:14;100953.03;;;2.04;100.00
41862;BME280;27537;57.134;-2.136;2023-04-25T03:57:40;100965.94;;;2.05;100.00
41862;BME280;27537;57.134;-2.136;2023-04-25T04:00:07;101005.56;;;2.32;100.00
41862;BME280;27537;57.134;-2.136;2023-04-25T04:02:34;100948.66;;;1.80;100.00
41862;BME280;27537;57.134;-2.136;2023-04-25T04:05:03;100959.03;;;2.04;100.00
41862;BME280;27537;57.134;-2.136;2023-04-25T04:07:30;100978.81;;;2.07;100.00
41862;BME280;27537;57.134;-2.136;2023-04-25T04:09:59;100966.75;;;1.83;100.00
41862;BME280;27537;57.134;-2.136;2023-04-25T04:12:26;100935.75;;;1.77;100.00
41862;BME280;27537;57.134;-2.136;2023-04-25T04:14:52;101016.75;;;2.37;100.00
41862;BME280;27537;57.134;-2.136;2023-04-25T04:17:19;101003.84;;;2.20;100.00
41862;BME280;27537;57.134;-2.136;2023-04-25T04:19:46;100986.59;;;2.18;100.00
41862;BME280;27537;57.134;-2.136;2023-04-25T04:22:12;100993.50;;;2.23;100.00
41862;BME280;27537;57.134;-2.136;2023-04-25T04:24:39;101005.56;;;2.35;100.00
41862;BME280;27537;57.134;-2.136;2023-04-25T04:27:06;100972.81;;;2.09;100.00
41862;BME280;27537;57.134;-2.136;2023-04-25T04:29:33;100982.28;;;2.12;100.00
41862;BME280;27537;57.134;-2.136;2023-04-25T04:31:59;100969.34;;;2.01;100.00
41862;BME280;27537;57.134;-2.136;2023-04-25T04:34:27;100935.78;;;1.92;100.00
41862;BME280;27537;57.134;-2.136;2023-04-25T04:36:54;100980.56;;;2.05;100.00
41862;BME280;27537;57.134;-2.136;2023-04-25T04:39:21;100952.13;;;1.88;100.00
41862;BME280;27537;57.134;-2.136;2023-04-25T04:41:48;100928.03;;;1.81;100.00
41862;BME280;27537;57.134;-2.136;2023-04-25T04:44:15;101002.09;;;2.19;100.00
41862;BME280;27537;57.134;-2.136;2023-04-25T04:46:42;100929.72;;;1.76;100.00
41862;BME280;27537;57.134;-2.136;2023-04-25T04:49:10;101016.75;;;2.23;100.00
41862;BME280;27537;57.134;-2.136;2023-04-25T04:51:37;100940.91;;;1.77;100.00
41862;BME280;27537;57.134;-2.136;2023-04-25T04:54:04;100996.06;;;2.09;100.00
41862;BME280;27537;57.134;-2.136;2023-04-25T04:56:31;100996.94;;;2.04;100.00
41862;BME280;27537;57.134;-2.136;2023-04-25T04:58:58;100988.31;;;2.05;100.00
41862;BME280;27537;57.134;-2.136;2023-04-25T05:01:26;101013.31;;;2.21;100.00
41862;BME280;27537;57.134;-2.136;2023-04-25T05:03:53;101021.94;;;2.23;100.00
41862;BME280;27537;57.134;-2.136;2023-04-25T05:06:21;100971.94;;;2.00;100.00
41862;BME280;27537;57.134;-2.136;2023-04-25T05:08:47;101029.66;;;2.37;100.00
41862;BME280;27537;57.134;-2.136;2023-04-25T05:11:15;100946.94;;;1.79;100.00
41862;BME280;27537;57.134;-2.136;2023-04-25T05:13:42;101002.13;;;2.16;100.00
41862;BME280;27537;57.134;-2.136;2023-04-25T05:16:08;100953.03;;;2.13;100.00
41862;BME280;27537;57.134;-2.136;2023-04-25T05:18:35;100996.97;;;2.50;100.00
41862;BME280;27537;57.134;-2.136;2023-04-25T05:21:02;100984.03;;;2.39;100.00
41862;BME280;27537;57.134;-2.136;2023-04-25T05:23:30;100989.19;;;2.35;100.00
41862;BME280;27537;57.134;-2.136;2023-04-25T05:25:59;100983.16;;;2.33;100.00
41862;BME280;27537;57.134;-2.136;2023-04-25T05:28:26;100979.72;;;2.20;100.00
41862;BME280;27537;57.134;-2.136;2023-04-25T05:30:52;101015.91;;;2.41;100.00
41862;BME280;27537;57.134;-2.136;2023-04-25T05:33:19;100971.97;;;2.26;100.00
41862;BME280;27537;57.134;-2.136;2023-04-25T05:35:46;101053.84;;;2.73;100.00
41862;BME280;27537;57.134;-2.136;2023-04-25T05:38:13;101071.06;;;2.83;100.00
41862;BME280;27537;57.134;-2.136;2023-04-25T05:40:40;100997.81;;;2.32;100.00
41862;BME280;27537;57.134;-2.136;2023-04-25T05:43:07;101040.91;;;2.70;100.00
41862;BME280;27537;57.134;-2.136;2023-04-25T05:45:34;101003.84;;;2.66;100.00
41862;BME280;27537;57.134;-2.136;2023-04-25T05:48:01;101001.25;;;2.63;100.00
41862;BME280;27537;57.134;-2.136;2023-04-25T05:50:27;101048.59;;;3.19;100.00
41862;BME280;27537;57.134;-2.136;2023-04-25T05:52:54;101050.28;;;3.34;100.00
41862;BME280;27537;57.134;-2.136;2023-04-25T05:55:21;101035.66;;;3.24;100.00
41862;BME280;27537;57.134;-2.136;2023-04-25T05:57:48;101018.38;;;3.34;100.00
41862;BME280;27537;57.134;-2.136;2023-04-25T06:00:17;101064.03;;;3.59;100.00
41862;BME280;27537;57.134;-2.136;2023-04-25T06:02:45;101019.22;;;3.40;100.00
41862;BME280;27537;57.134;-2.136;2023-04-25T06:05:12;101064.84;;;3.71;100.00
41862;BME280;27537;57.134;-2.136;2023-04-25T06:07:39;101048.50;;;3.49;100.00
41862;BME280;27537;57.134;-2.136;2023-04-25T06:10:06;101039.06;;;3.37;100.00
41862;BME280;27537;57.134;-2.136;2023-04-25T06:12:33;101089.03;;;3.65;100.00
41862;BME280;27537;57.134;-2.136;2023-04-25T06:15:00;101059.75;;;3.43;100.00
41862;BME280;27537;57.134;-2.136;2023-04-25T06:17:29;101048.53;;;3.47;100.00
41862;BME280;27537;57.134;-2.136;2023-04-25T06:19:56;101049.41;;;3.38;100.00
41862;BME280;27537;57.134;-2.136;2023-04-25T06:22:23;101105.44;;;3.61;100.00
41862;BME280;27537;57.134;-2.136;2023-04-25T06:24:49;101057.22;;;3.26;100.00
41862;BME280;27537;57.134;-2.136;2023-04-25T06:27:16;101030.47;;;3.24;100.00
41862;BME280;27537;57.134;-2.136;2023-04-25T06:29:43;101047.72;;;3.27;100.00
41862;BME280;27537;57.134;-2.136;2023-04-25T06:32:09;101103.69;;;3.66;100.00
41862;BME280;27537;57.134;-2.136;2023-04-25T06:34:36;101060.69;;;3.16;100.00
41862;BME280;27537;57.134;-2.136;2023-04-25T06:37:03;101041.72;;;3.14;100.00
41862;BME280;27537;57.134;-2.136;2023-04-25T06:39:30;101024.47;;;3.19;100.00
41862;BME280;27537;57.134;-2.136;2023-04-25T06:41:56;101054.59;;;3.38;100.00
41862;BME280;27537;57.134;-2.136;2023-04-25T06:44:23;101045.16;;;3.14;100.00
41862;BME280;27537;57.134;-2.136;2023-04-25T06:46:52;101045.75;;;3.87;100.00
41862;BME280;27537;57.134;-2.136;2023-04-25T06:49:19;101016.53;;;4.87;100.00
41862;BME280;27537;57.134;-2.136;2023-04-25T06:51:46;101041.41;;;5.84;100.00
41862;BME280;27537;57.134;-2.136;2023-04-25T06:54:12;101055.66;;;6.19;100.00
41862;BME280;27537;57.134;-2.136;2023-04-25T06:56:42;101053.25;;;6.64;100.00
41862;BME280;27537;57.134;-2.136;2023-04-25T06:59:08;101050.59;;;7.19;100.00
41862;BME280;27537;57.134;-2.136;2023-04-25T07:01:35;101074.81;;;7.68;100.00
41862;BME280;27537;57.134;-2.136;2023-04-25T07:04:02;101064.94;;;7.84;100.00
41862;BME280;27537;57.134;-2.136;2023-04-25T07:06:29;101068.88;;;7.16;100.00
41862;BME280;27537;57.134;-2.136;2023-04-25T07:08:57;101114.38;;;6.93;100.00
41862;BME280;27537;57.134;-2.136;2023-04-25T07:11:25;101058.88;;;6.91;100.00
41862;BME280;27537;57.134;-2.136;2023-04-25T07:13:52;101038.44;;;7.18;100.00
41862;BME280;27537;57.134;-2.136;2023-04-25T07:16:19;101061.47;;;7.85;100.00
41862;BME280;27537;57.134;-2.136;2023-04-25T07:18:46;101043.84;;;7.07;100.00
41862;BME280;27537;57.134;-2.136;2023-04-25T07:21:12;101039.56;;;7.50;100.00
41862;BME280;27537;57.134;-2.136;2023-04-25T07:23:39;101061.44;;;7.41;100.00
41862;BME280;27537;57.134;-2.136;2023-04-25T07:26:07;101056.75;;;6.63;100.00
41862;BME280;27537;57.134;-2.136;2023-04-25T07:28:34;101028.06;;;6.67;100.00
41862;BME280;27537;57.134;-2.136;2023-04-25T07:31:01;101083.78;;;7.54;100.00
41862;BME280;27537;57.134;-2.136;2023-04-25T07:33:27;101074.78;;;6.74;100.00
41862;BME280;27537;57.134;-2.136;2023-04-25T07:35:54;101008.44;;;6.98;100.00
41862;BME280;27537;57.134;-2.136;2023-04-25T07:38:22;101033.94;;;8.10;100.00
41862;BME280;27537;57.134;-2.136;2023-04-25T07:40:49;101018.41;;;7.21;100.00
41862;BME280;27537;57.134;-2.136;2023-04-25T07:43:16;101083.88;;;7.50;100.00
41862;BME280;27537;57.134;-2.136;2023-04-25T07:45:44;101115.19;;;8.32;100.00
41862;BME280;27537;57.134;-2.136;2023-04-25T07:48:11;101090.78;;;8.35;100.00
41862;BME280;27537;57.134;-2.136;2023-04-25T07:50:37;101075.28;;;7.88;100.00
41862;BME280;27537;57.134;-2.136;2023-04-25T07:53:04;101053.63;;;7.86;100.00
41862;BME280;27537;57.134;-2.136;2023-04-25T07:55:31;101125.03;;;7.77;100.00
41862;BME280;27537;57.134;-2.136;2023-04-25T07:57:57;101126.75;;;7.32;100.00
41862;BME280;27537;57.134;-2.136;2023-04-25T08:00:24;101097.91;;;7.43;100.00
41862;BME280;27537;57.134;-2.136;2023-04-25T08:02:51;101046.47;;;7.52;100.00
41862;BME280;27537;57.134;-2.136;2023-04-25T08:05:18;101039.28;;;7.20;100.00
41862;BME280;27537;57.134;-2.136;2023-04-25T08:07:48;101084.94;;;7.38;100.00
41862;BME280;27537;57.134;-2.136;2023-04-25T08:10:15;101078.38;;;7.65;100.00
41862;BME280;27537;57.134;-2.136;2023-04-25T08:12:41;101045.88;;;6.91;100.00
41862;BME280;27537;57.134;-2.136;2023-04-25T08:15:08;101116.75;;;7.07;100.00
41862;BME280;27537;57.134;-2.136;2023-04-25T08:17:35;101042.75;;;6.69;100.00
41862;BME280;27537;57.134;-2.136;2023-04-25T08:20:03;101118.91;;;7.35;100.00
41862;BME280;27537;57.134;-2.136;2023-04-25T08:22:32;101067.50;;;7.87;100.00
41862;BME280;27537;57.134;-2.136;2023-04-25T08:24:59;101037.13;;;7.42;100.00
41862;BME280;27537;57.134;-2.136;2023-04-25T08:27:25;101098.41;;;8.04;100.00
41862;BME280;27537;57.134;-2.136;2023-04-25T08:29:52;101101.66;;;7.73;100.00
41862;BME280;27537;57.134;-2.136;2023-04-25T08:32:19;101055.22;;;7.50;100.00
41862;BME280;27537;57.134;-2.136;2023-04-25T08:34:47;101127.41;;;7.90;100.00
41862;BME280;27537;57.134;-2.136;2023-04-25T08:37:14;101061.28;;;7.92;100.00
41862;BME280;27537;57.134;-2.136;2023-04-25T08:39:40;101126.50;;;7.91;100.00
41862;BME280;27537;57.134;-2.136;2023-04-25T08:42:09;101117.22;;;7.31;100.00
41862;BME280;27537;57.134;-2.136;2023-04-25T08:44:36;101128.50;;;7.78;100.00
41862;BME280;27537;57.134;-2.136;2023-04-25T08:47:04;101127.97;;;8.04;100.00
41862;BME280;27537;57.134;-2.136;2023-04-25T08:49:32;101128.38;;;7.84;100.00
41862;BME280;27537;57.134;-2.136;2023-04-25T08:52:02;101121.28;;;7.91;100.00
41862;BME280;27537;57.134;-2.136;2023-04-25T08:54:30;101088.34;;;7.43;100.00
41862;BME280;27537;57.134;-2.136;2023-04-25T08:57:02;101131.41;;;7.61;100.00
41862;BME280;27537;57.134;-2.136;2023-04-25T08:59:33;101098.00;;;7.36;100.00
41862;BME280;27537;57.134;-2.136;2023-04-25T09:02:03;101101.63;;;7.74;100.00
41862;BME280;27537;57.134;-2.136;2023-04-25T09:04:31;101143.78;;;7.95;100.00
41862;BME280;27537;57.134;-2.136;2023-04-25T09:06:58;101118.78;;;7.86;100.00
41862;BME280;27537;57.134;-2.136;2023-04-25T09:09:25;101125.50;;;7.54;100.00
41862;BME280;27537;57.134;-2.136;2023-04-25T09:11:53;101116.38;;;7.29;100.00
41862;BME280;27537;57.134;-2.136;2023-04-25T09:14:22;101086.50;;;7.48;100.00
41862;BME280;27537;57.134;-2.136;2023-04-25T09:17:00;101171.69;;;6.31;100.00
41862;BME280;27537;57.134;-2.136;2023-04-25T09:19:45;101114.38;;;5.64;100.00
41862;BME280;27537;57.134;-2.136;2023-04-25T09:22:12;101105.69;;;5.68;100.00
41862;BME280;27537;57.134;-2.136;2023-04-25T09:24:41;101100.41;;;5.76;100.00
41862;BME280;27537;57.134;-2.136;2023-04-25T09:27:21;101151.31;;;5.91;100.00
41862;BME280;27537;57.134;-2.136;2023-04-25T09:29:57;101096.75;;;5.89;100.00
41862;BME280;27537;57.134;-2.136;2023-04-25T09:32:25;101174.38;;;6.86;100.00
41862;BME280;27537;57.134;-2.136;2023-04-25T09:34:54;101168.00;;;7.07;100.00
41862;BME280;27537;57.134;-2.136;2023-04-25T09:37:28;101074.28;;;7.05;100.00
41862;BME280;27537;57.134;-2.136;2023-04-25T09:39:57;101158.63;;;7.91;100.00
41862;BME280;27537;57.134;-2.136;2023-04-25T09:42:27;101132.66;;;7.41;100.00
41862;BME280;27537;57.134;-2.136;2023-04-25T09:44:56;101043.28;;;6.90;100.00
41862;BME280;27537;57.134;-2.136;2023-04-25T09:47:26;101166.91;;;7.68;100.00
41862;BME280;27537;57.134;-2.136;2023-04-25T09:49:55;101068.69;;;7.27;100.00
41862;BME280;27537;57.134;-2.136;2023-04-25T09:52:23;101136.03;;;7.93;100.00
41862;BME280;27537;57.134;-2.136;2023-04-25T09:54:52;101136.19;;;7.84;100.00
41862;BME280;27537;57.134;-2.136;2023-04-25T09:57:20;101137.94;;;7.84;100.00
41862;BME280;27537;57.134;-2.136;2023-04-25T09:59:50;101076.09;;;7.48;100.00
41862;BME280;27537;57.134;-2.136;2023-04-25T10:02:19;101116.66;;;7.13;100.00
41862;BME280;27537;57.134;-2.136;2023-04-25T10:04:51;101102.19;;;7.90;100.00
41862;BME280;27537;57.134;-2.136;2023-04-25T10:07:31;101124.06;;;8.25;100.00
41862;BME280;27537;57.134;-2.136;2023-04-25T10:10:02;101127.31;;;8.35;100.00
41862;BME280;27537;57.134;-2.136;2023-04-25T10:12:30;101150.25;;;7.29;100.00
41862;BME280;27537;57.134;-2.136;2023-04-25T10:15:01;101165.78;;;7.35;100.00
41862;BME280;27537;57.134;-2.136;2023-04-25T10:17:29;101142.69;;;7.13;100.00
41862;BME280;27537;57.134;-2.136;2023-04-25T10:19:56;101119.53;;;6.98;100.00
41862;BME280;27537;57.134;-2.136;2023-04-25T10:22:30;101100.13;;;7.16;100.00
41862;BME280;27537;57.134;-2.136;2023-04-25T10:24:57;101126.59;;;7.39;100.00
41862;BME280;27537;57.134;-2.136;2023-04-25T10:27:27;101160.09;;;8.06;100.00
41862;BME280;27537;57.134;-2.136;2023-04-25T10:32:32;101134.44;;;8.27;100.00
41862;BME280;27537;57.134;-2.136;2023-04-25T10:35:29;101150.47;;;8.10;100.00
41862;BME280;27537;57.134;-2.136;2023-04-25T10:40:27;101120.53;;;8.26;100.00
41862;BME280;27537;57.134;-2.136;2023-04-25T10:42:54;101146.28;;;8.45;100.00
41862;BME280;27537;57.134;-2.136;2023-04-25T10:45:22;101148.69;;;8.10;100.00
41862;BME280;27537;57.134;-2.136;2023-04-25T10:47:49;101119.84;;;7.77;100.00
41862;BME280;27537;57.134;-2.136;2023-04-25T10:50:16;101160.38;;;7.92;100.00
41862;BME280;27537;57.134;-2.136;2023-04-25T10:52:43;101140.75;;;7.26;100.00
41862;BME280;27537;57.134;-2.136;2023-04-25T10:55:11;101202.00;;;7.49;100.00
41862;BME280;27537;57.134;-2.136;2023-04-25T10:57:42;101131.03;;;7.34;100.00
41862;BME280;27537;57.134;-2.136;2023-04-25T11:00:18;101154.50;;;7.33;100.00
41862;BME280;27537;57.134;-2.136;2023-04-25T11:02:52;101169.81;;;7.98;100.00
41862;BME280;27537;57.134;-2.136;2023-04-25T11:05:29;101151.72;;;7.90;100.00
41862;BME280;27537;57.134;-2.136;2023-04-25T11:08:00;101191.94;;;8.22;100.00
41862;BME280;27537;57.134;-2.136;2023-04-25T11:10:34;101223.63;;;7.54;100.00
41862;BME280;27537;57.134;-2.136;2023-04-25T11:13:04;101199.75;;;6.71;100.00
41862;BME280;27537;57.134;-2.136;2023-04-25T11:15:31;101179.03;;;5.97;100.00
41862;BME280;27537;57.134;-2.136;2023-04-25T11:17:58;101135.94;;;5.73;100.00
41862;BME280;27537;57.134;-2.136;2023-04-25T11:20:25;101168.41;;;6.14;100.00
41862;BME280;27537;57.134;-2.136;2023-04-25T11:22:57;101207.22;;;6.94;100.00
41862;BME280;27537;57.134;-2.136;2023-04-25T11:25:25;101123.13;;;6.32;100.00
41862;BME280;27537;57.134;-2.136;2023-04-25T11:27:54;101214.72;;;7.16;100.00
41862;BME280;27537;57.134;-2.136;2023-04-25T11:30:23;101174.56;;;7.28;100.00
41862;BME280;27537;57.134;-2.136;2023-04-25T11:32:50;101167.59;;;7.30;100.00
41862;BME280;27537;57.134;-2.136;2023-04-25T11:35:19;101166.19;;;7.62;100.00
41862;BME280;27537;57.134;-2.136;2023-04-25T11:37:47;101177.28;;;7.71;100.00
41862;BME280;27537;57.134;-2.136;2023-04-25T11:40:14;101183.06;;;7.39;100.00
41862;BME280;27537;57.134;-2.136;2023-04-25T11:42:46;101198.03;;;7.77;100.00
41862;BME280;27537;57.134;-2.136;2023-04-25T11:45:13;101153.16;;;7.62;100.00
41862;BME280;27537;57.134;-2.136;2023-04-25T11:47:40;101191.97;;;8.21;100.00
41862;BME280;27537;57.134;-2.136;2023-04-25T11:50:08;101162.31;;;8.25;100.00
41862;BME280;27537;57.134;-2.136;2023-04-25T11:52:38;101181.53;;;8.63;100.00
41862;BME280;27537;57.134;-2.136;2023-04-25T11:55:07;101134.25;;;8.36;100.00
41862;BME280;27537;57.134;-2.136;2023-04-25T11:57:38;101172.97;;;8.95;100.00
41862;BME280;27537;57.134;-2.136;2023-04-25T12:00:16;101194.22;;;8.78;100.00
41862;BME280;27537;57.134;-2.136;2023-04-25T12:02:46;101175.28;;;9.07;100.00
41862;BME280;27537;57.134;-2.136;2023-04-25T12:05:15;101179.91;;;9.32;100.00
41862;BME280;27537;57.134;-2.136;2023-04-25T12:08:09;101178.13;;;9.32;100.00
41862;BME280;27537;57.134;-2.136;2023-04-25T12:10:38;101142.81;;;9.18;99.83
41862;BME280;27537;57.134;-2.136;2023-04-25T12:15:46;101127.75;;;8.55;83.91
41862;BME280;27537;57.134;-2.136;2023-04-25T12:18:13;101132.13;;;8.92;88.00
41862;BME280;27537;57.134;-2.136;2023-04-25T12:20:41;101148.16;;;9.47;90.22
41862;BME280;27537;57.134;-2.136;2023-04-25T12:23:08;101104.78;;;9.40;86.47
41862;BME280;27537;57.134;-2.136;2023-04-25T12:28:16;101149.84;;;9.81;79.94
41862;BME280;27537;57.134;-2.136;2023-04-25T12:33:37;101185.69;;;9.43;81.70
41862;BME280;27537;57.134;-2.136;2023-04-25T12:36:06;101153.38;;;8.36;100.00
41862;BME280;27537;57.134;-2.136;2023-04-25T12:38:39;101223.47;;;8.10;100.00
41862;BME280;27537;57.134;-2.136;2023-04-25T12:41:06;101222.97;;;7.91;100.00
41862;BME280;27537;57.134;-2.136;2023-04-25T12:43:33;101160.88;;;7.16;100.00
41862;BME280;27537;57.134;-2.136;2023-04-25T12:46:00;101225.75;;;7.32;100.00
41862;BME280;27537;57.134;-2.136;2023-04-25T12:48:27;101203.34;;;7.20;100.00
41862;BME280;27537;57.134;-2.136;2023-04-25T12:50:54;101169.66;;;7.09;100.00
41862;BME280;27537;57.134;-2.136;2023-04-25T12:53:22;101197.25;;;7.22;100.00
41862;BME280;27537;57.134;-2.136;2023-04-25T12:55:50;101211.25;;;7.15;100.00
41862;BME280;27537;57.134;-2.136;2023-04-25T12:58:18;101232.44;;;7.47;100.00